Cape Girardeau, MO (63701)

3:12 AM CST on January 17, 2017 (GMT -0600)
Timber Creek | | Change Station

Elev 440 ft 37.34 °N, 89.54 °W | Updated 1 day ago

Partly Cloudy
Partly Cloudy
36.0 °F
Feels Like 33 °F
N
4.0
Wind Variable Wind from SSE
Gusts 6.0 mph

Today
High -- | Low -- °F
--% Chance of Precip.
Yesterday
High -- | Low -- °F
Precip. -- in
Pressure 29.92 in
Visibility 10.0 miles
Clouds Few 1400 ft
Mostly Cloudy 2300 ft
Windchill 33 °F
Dew Point 34 °F
Humidity 94%
Rainfall 0.09 in
Snow Depth Not available.
7:10 AM 5:06 PM
Waning Gibbous, 74% visible
SPECI KCGI 170910Z AUTO 25014KT 10SM FEW014 BKN023 14/12 A2992 RMK AO2 T01440122
Pressure 29.92 in
Visibility 10.0 miles
Clouds Few 1400 ft
Mostly Cloudy 2300 ft
Windchill 33 °F
Dew Point 34 °F
Humidity 94%
Rainfall 0.09 in
Snow Depth Not available.
7:10 AM 5:06 PM
Waning Gibbous, 74% visible
SPECI KCGI 170910Z AUTO 25014KT 10SM FEW014 BKN023 14/12 A2992 RMK AO2 T01440122

Get Your Daily Forecast Email!

Thanks for signing up!

Be on the lookout for a verification email in your inbox.

You'll start receiving the daily forecast at 8 AM.

×

10-Day Weather Forecast

Almanac

Astronomy

Jan. 17, 2017 Rise Set
Actual Time
Civil Twilight
Nautical Twilight
Astronomical Twilight
Moon
Length of Visible Light
Length of Day
Tomorrow will be .
, % of the Moon is Illuminated

Today's Extremes

State Highs State Lows

Community

WunderPhotos

Upload Photos

1,962,540 photos uploaded!

WunderBlog® & News

Nearby

Air Quality

  Air Quality AQ Index Pollutant
Not available.

Snow Depth

Station Depth Elevation

Earthquake Activity

City Distance Mag. Time & Date
Minimum magnitude displayed is 2.5.

Coastal Water Temperatures

Place Temperature

Stations

Nearby Weather Stations

Station Location Temp. Windchill Dew Point Humidity Wind Precip. Elev Updated Type
                   

Watches & Warnings

There are currently no watches in effect.